WATT/KOE METAR and TAF weather

Enter ICAO airport designator
Station Type Date Time Source
WATT METAR 2021/05/14 06:30 UTC NOAA

WATT 140630Z 11018KT 9999 FEW020 31/20 Q1008 NOSIG


Station Type Date Time Source
WATT Decoded METAR 2021/05/14 06:30 UTC NOAA

Station name not available
May 14, 2021 - 02:30 AM EDT / 2021.05.14 0630 UTC
Wind: from the ESE (110 degrees) at 21 MPH (18 KT):0
Visibility: greater than 7 mile(s):0
Sky conditions: mostly clear
Temperature: 87 F (31 C)
Dew Point: 68 F (20 C)
Relative Humidity: 52%
Pressure (altimeter): 29.77 in. Hg (1008 hPa)
ob: WATT 140630Z 11018KT 9999 FEW020 31/20 Q1008 NOSIG
cycle: 6

Station Type Date Time Source
WATT TAF 2021/05/14 06:00 UTC NOAA

TAF WATT 140500Z 1406/1506 13012G22KT 9000 SCT018
BECMG 1414/1415 11010KT

Example: see airport list